createdAt,value
2022-08-25T12:14:16.000Z,6.7
2022-08-25T12:15:30.000Z,6.9
2022-08-25T12:16:44.000Z,6.4
2022-08-25T12:17:58.000Z,5.6
2022-08-25T12:19:13.000Z,5.9
2022-08-25T12:20:27.000Z,5.3
2022-08-25T12:21:41.000Z,6.1
2022-08-25T12:22:55.000Z,5.9
2022-08-25T12:24:09.000Z,5.9
2022-08-25T12:25:23.000Z,5.7
2022-08-25T12:26:37.000Z,5.8
2022-08-25T12:27:51.000Z,5.5
2022-08-25T12:29:06.000Z,6.1
2022-08-25T12:30:20.000Z,6.1
2022-08-25T12:31:34.000Z,5.1
2022-08-25T12:32:48.000Z,5.5
2022-08-25T12:34:02.000Z,5.6
2022-08-25T12:35:16.000Z,6.4
2022-08-25T12:36:30.000Z,5.5
2022-08-25T12:37:45.000Z,5.9
2022-08-25T12:38:58.000Z,6.6
2022-08-25T12:40:11.000Z,6.3
2022-08-25T12:41:25.000Z,6.3
2022-08-25T12:42:39.000Z,7.2
2022-08-25T12:43:53.000Z,7.3
2022-08-25T12:45:07.000Z,6.3
2022-08-25T12:46:21.000Z,6.2
2022-08-25T12:47:36.000Z,5.8
2022-08-25T12:48:50.000Z,5.5
2022-08-25T12:50:04.000Z,6.2
2022-08-25T12:51:18.000Z,5.6
2022-08-25T12:52:32.000Z,5.4
2022-08-25T12:53:46.000Z,5.3
2022-08-25T12:55:00.000Z,5.3
2022-08-25T12:56:14.000Z,5.8
2022-08-25T12:57:28.000Z,5.5
2022-08-25T12:58:42.000Z,5
2022-08-25T12:59:56.000Z,5.6
2022-08-25T13:01:10.000Z,5.2
2022-08-25T13:02:24.000Z,6.2
2022-08-25T13:03:38.000Z,5.9
2022-08-25T13:04:52.000Z,5.9
2022-08-25T13:06:05.000Z,5.6
2022-08-25T13:07:19.000Z,5.8
2022-08-25T13:08:33.000Z,5.7
2022-08-25T13:09:47.000Z,5.5
2022-08-25T13:11:01.000Z,6
2022-08-25T13:12:15.000Z,5.7
2022-08-25T13:13:29.000Z,6.1
2022-08-25T13:14:44.000Z,5.7
2022-08-25T13:15:58.000Z,5.6
2022-08-25T13:17:12.000Z,5.6
2022-08-25T13:18:26.000Z,5.4
2022-08-25T13:19:40.000Z,5.2
2022-08-25T13:20:54.000Z,5.7
2022-08-25T13:22:08.000Z,6.3
2022-08-25T13:23:22.000Z,6.2
2022-08-25T13:24:36.000Z,5.5
2022-08-25T13:25:50.000Z,6.1
2022-08-25T13:27:04.000Z,5.9
2022-08-25T13:28:18.000Z,6.3
2022-08-25T13:29:32.000Z,6
2022-08-25T13:30:45.000Z,5.8
2022-08-25T13:31:58.000Z,5.6
2022-08-25T13:33:13.000Z,5.8
2022-08-25T13:34:26.000Z,5.5
2022-08-25T13:35:39.000Z,6
2022-08-25T13:36:53.000Z,6.3
2022-08-25T13:38:07.000Z,5.9
2022-08-25T13:39:21.000Z,6.3
2022-08-25T13:40:35.000Z,6
2022-08-25T13:41:50.000Z,6
2022-08-25T13:43:04.000Z,5.8
2022-08-25T13:44:18.000Z,5.5
2022-08-25T13:45:32.000Z,6
2022-08-25T13:46:46.000Z,5.8
2022-08-25T13:48:00.000Z,5.9
2022-08-25T13:49:14.000Z,5.6
2022-08-25T13:50:29.000Z,6
2022-08-25T13:51:42.000Z,6.6
2022-08-25T13:52:56.000Z,6.2
2022-08-25T13:54:10.000Z,6
2022-08-25T13:55:24.000Z,6.1
2022-08-25T13:56:38.000Z,5.8
2022-08-25T13:57:52.000Z,6.1
2022-08-25T13:59:06.000Z,6.6
2022-08-25T14:00:20.000Z,6.1
2022-08-25T14:01:33.000Z,6.1
2022-08-25T14:02:47.000Z,6.1
2022-08-25T14:04:00.000Z,6.2
2022-08-25T14:05:13.000Z,6.3
2022-08-25T14:06:27.000Z,6.4
2022-08-25T14:07:41.000Z,6.7
2022-08-25T14:08:56.000Z,6.4
2022-08-25T14:10:10.000Z,6.3
2022-08-25T14:11:24.000Z,6.1
2022-08-25T14:12:38.000Z,6.4
2022-08-25T14:13:52.000Z,6.2
2022-08-25T14:15:06.000Z,6.4
2022-08-25T14:16:20.000Z,6.5
2022-08-25T14:17:35.000Z,5.9
2022-08-25T14:18:49.000Z,6.2
2022-08-25T14:20:03.000Z,6.5
2022-08-25T14:21:16.000Z,6.1
2022-08-25T14:23:44.000Z,6.4
2022-08-25T14:24:58.000Z,6.1
2022-08-25T14:26:12.000Z,6.2
2022-08-25T14:27:27.000Z,6.5
2022-08-25T14:28:41.000Z,7.1
2022-08-25T14:29:55.000Z,6.6
2022-08-25T14:31:09.000Z,6.6
2022-08-25T14:32:22.000Z,6.3
2022-08-25T14:33:35.000Z,6.6
2022-08-25T14:34:49.000Z,6.3
2022-08-25T14:36:04.000Z,6.1
2022-08-25T14:37:18.000Z,6.5
2022-08-25T14:38:31.000Z,6.6
2022-08-25T14:39:44.000Z,6.3
2022-08-25T14:40:58.000Z,6.7
2022-08-25T14:42:12.000Z,6.6
2022-08-25T14:43:26.000Z,6.7
2022-08-25T14:44:41.000Z,7.5
2022-08-25T14:47:09.000Z,6.8
2022-08-25T14:48:23.000Z,6.7
2022-08-25T14:49:37.000Z,6.9
2022-08-25T14:50:51.000Z,6.6
2022-08-25T14:52:05.000Z,6.4
2022-08-25T14:53:19.000Z,6.8
2022-08-25T14:54:34.000Z,6.2
2022-08-25T14:55:47.000Z,6.8
2022-08-25T14:57:01.000Z,6.9
2022-08-25T14:58:15.000Z,6.9
2022-08-25T14:59:29.000Z,6.3
2022-08-25T15:00:43.000Z,6.8
2022-08-25T15:01:57.000Z,6.4
2022-08-25T15:03:12.000Z,6.6
2022-08-25T15:04:26.000Z,6.6
2022-08-25T15:05:39.000Z,6.4
2022-08-25T15:06:52.000Z,7
2022-08-25T15:08:06.000Z,6.7
2022-08-25T15:09:20.000Z,6.6
2022-08-25T15:10:34.000Z,6.9
2022-08-25T15:11:48.000Z,6.6
2022-08-25T15:13:03.000Z,6.9
2022-08-25T15:14:17.000Z,6.7
2022-08-25T15:15:31.000Z,6.5
2022-08-25T15:16:45.000Z,6
2022-08-25T15:17:59.000Z,6.9
2022-08-25T15:19:13.000Z,6.3
2022-08-25T15:20:27.000Z,6.7
2022-08-25T15:21:42.000Z,6.6
2022-08-25T15:22:55.000Z,7.4
2022-08-25T15:24:09.000Z,6.5
2022-08-25T15:25:23.000Z,6.8
2022-08-25T15:26:37.000Z,6.1
2022-08-25T15:27:51.000Z,6.8
2022-08-25T15:29:05.000Z,6.8
2022-08-25T15:30:19.000Z,7.3
2022-08-25T15:31:33.000Z,6.5
2022-08-25T15:32:46.000Z,6.6
2022-08-25T15:33:59.000Z,7.3
2022-08-25T15:35:12.000Z,6.5
2022-08-25T15:36:26.000Z,6.5
2022-08-25T15:37:40.000Z,6.5
2022-08-25T15:38:54.000Z,6.7
2022-08-25T15:40:09.000Z,6.5
2022-08-25T15:41:23.000Z,6.2
2022-08-25T15:42:37.000Z,6.8
2022-08-25T15:43:51.000Z,6.7
2022-08-25T15:46:19.000Z,6.4
2022-08-25T15:47:33.000Z,6.9
2022-08-25T15:50:02.000Z,6.6
2022-08-25T15:51:15.000Z,6
2022-08-25T15:52:28.000Z,6.9
2022-08-25T15:53:42.000Z,6.5
2022-08-25T15:54:56.000Z,6.5
2022-08-25T15:56:10.000Z,6.4
2022-08-25T15:57:25.000Z,7.3
2022-08-25T15:58:39.000Z,7.7
2022-08-25T15:59:53.000Z,8.5
2022-08-25T16:01:07.000Z,7.9
2022-08-25T16:02:21.000Z,6.8
2022-08-25T16:03:35.000Z,6.5
2022-08-25T16:04:48.000Z,7.1
2022-08-25T16:06:01.000Z,6.1
2022-08-25T16:07:16.000Z,6.1
2022-08-25T16:08:30.000Z,6.6
2022-08-25T16:09:44.000Z,6.1
2022-08-25T16:10:58.000Z,7.4
2022-08-25T16:12:12.000Z,7
2022-08-25T16:13:26.000Z,6.5
2022-08-25T16:14:40.000Z,6.5
2022-08-25T16:15:55.000Z,6.2
2022-08-25T16:17:09.000Z,6.3
2022-08-25T16:18:23.000Z,6.5
2022-08-25T16:19:37.000Z,6.6
2022-08-25T16:20:51.000Z,7.8
2022-08-25T16:22:04.000Z,6.4
2022-08-25T16:23:18.000Z,6.5
2022-08-25T16:24:33.000Z,6.6
2022-08-25T16:25:47.000Z,6.4
2022-08-25T16:27:01.000Z,6.5
2022-08-25T16:28:15.000Z,6.8
2022-08-25T16:29:29.000Z,6.3
2022-08-25T16:30:42.000Z,6.3
2022-08-25T16:31:55.000Z,6.2
2022-08-25T16:33:09.000Z,6.6
2022-08-25T16:34:23.000Z,5.7
2022-08-25T16:35:36.000Z,6.1
2022-08-25T16:36:50.000Z,5.9
2022-08-25T16:38:04.000Z,6.4
2022-08-25T16:39:18.000Z,6.1
2022-08-25T16:40:32.000Z,6.4
2022-08-25T16:41:46.000Z,6.4
2022-08-25T16:43:01.000Z,6.7
2022-08-25T16:44:15.000Z,6.1
2022-08-25T16:45:29.000Z,6.4
2022-08-25T16:46:43.000Z,5.7
2022-08-25T16:47:57.000Z,6.4
2022-08-25T16:49:11.000Z,6.2
2022-08-25T16:50:25.000Z,6.3
2022-08-25T16:51:39.000Z,6
2022-08-25T16:52:53.000Z,6
2022-08-25T16:54:07.000Z,6.3
2022-08-25T16:55:21.000Z,6.8
2022-08-25T16:56:35.000Z,6.2
2022-08-25T16:57:49.000Z,5.9
2022-08-25T16:59:03.000Z,6
2022-08-25T17:00:16.000Z,6.2
2022-08-25T17:01:30.000Z,5.9
2022-08-25T17:02:44.000Z,5.7
2022-08-25T17:03:58.000Z,6.2
2022-08-25T17:05:12.000Z,6
2022-08-25T17:07:39.000Z,6.3
2022-08-25T17:08:52.000Z,6.1
2022-08-25T17:10:06.000Z,5.8
2022-08-25T17:11:20.000Z,6.2
2022-08-25T17:12:34.000Z,6.4
2022-08-25T17:13:48.000Z,6
2022-08-25T17:15:02.000Z,5.6
2022-08-25T17:16:16.000Z,5.6
2022-08-25T17:17:30.000Z,5.5
2022-08-25T17:18:45.000Z,7.7
2022-08-25T17:19:59.000Z,6.6
2022-08-25T17:21:13.000Z,5.5
2022-08-25T17:22:27.000Z,6.1
2022-08-25T17:23:41.000Z,5.9
2022-08-25T17:24:55.000Z,6
2022-08-25T17:26:08.000Z,5.2
2022-08-25T17:27:22.000Z,6.1
2022-08-25T17:28:37.000Z,6.2
2022-08-25T17:29:51.000Z,6.3
2022-08-25T17:31:05.000Z,6.3
2022-08-25T17:32:19.000Z,6
2022-08-25T17:33:33.000Z,5.5
2022-08-25T17:34:46.000Z,5.3
2022-08-25T17:35:59.000Z,6.1
2022-08-25T17:37:14.000Z,5.7
2022-08-25T17:38:27.000Z,5.7
2022-08-25T17:39:40.000Z,5.5
2022-08-25T17:40:54.000Z,5.3
2022-08-25T17:42:08.000Z,5.1
2022-08-25T17:43:22.000Z,5.6
2022-08-25T17:44:36.000Z,6.3
2022-08-25T17:45:51.000Z,5.9
2022-08-25T17:47:05.000Z,5.7
2022-08-25T17:48:19.000Z,5.5
2022-08-25T17:49:33.000Z,5.6
2022-08-25T17:50:47.000Z,6
2022-08-25T17:52:01.000Z,5.7
2022-08-25T17:53:15.000Z,5.9
2022-08-25T17:54:29.000Z,5.8
2022-08-25T17:55:43.000Z,6.6
2022-08-25T17:56:57.000Z,6.3
2022-08-25T17:58:11.000Z,5.8
2022-08-25T17:59:25.000Z,5.8
2022-08-25T18:00:39.000Z,6
2022-08-25T18:01:53.000Z,5.9
2022-08-25T18:03:07.000Z,6.2
2022-08-25T18:04:21.000Z,6.1
2022-08-25T18:05:34.000Z,5.9
2022-08-25T18:06:48.000Z,6.5
2022-08-25T18:08:01.000Z,6.3
2022-08-25T18:09:14.000Z,6.9
2022-08-25T18:10:28.000Z,5.6
2022-08-25T18:11:42.000Z,6.3
2022-08-25T18:12:57.000Z,5.6
2022-08-25T18:14:11.000Z,6.6
2022-08-25T18:15:25.000Z,6.3
2022-08-25T18:16:39.000Z,6.7
2022-08-25T18:17:53.000Z,6.8
2022-08-25T18:19:07.000Z,5.7
2022-08-25T18:20:21.000Z,6.2
2022-08-25T18:21:35.000Z,6.7
2022-08-25T18:22:50.000Z,7
2022-08-25T18:24:04.000Z,7.1
2022-08-25T18:25:17.000Z,6.5
2022-08-25T18:26:31.000Z,6.9
2022-08-25T18:27:45.000Z,6.4
2022-08-25T18:28:59.000Z,7.3
2022-08-25T18:30:13.000Z,6.8
2022-08-25T18:31:28.000Z,6.4
2022-08-25T18:32:42.000Z,7.2
2022-08-25T18:33:55.000Z,7.2
2022-08-25T18:35:08.000Z,7.2
2022-08-25T18:36:22.000Z,6.9
2022-08-25T18:37:35.000Z,7.3
2022-08-25T18:38:48.000Z,6.6
2022-08-25T18:40:03.000Z,6.8
2022-08-25T18:41:17.000Z,6.9
2022-08-25T18:42:31.000Z,6.8
2022-08-25T18:43:45.000Z,6.6
2022-08-25T18:44:59.000Z,6.6
2022-08-25T18:46:13.000Z,7.8
2022-08-25T18:47:27.000Z,6.9
2022-08-25T18:48:42.000Z,8.6
2022-08-25T18:49:56.000Z,7.4
2022-08-25T18:51:10.000Z,7.5
2022-08-25T18:52:24.000Z,7.5
2022-08-25T18:53:38.000Z,7.8
2022-08-25T18:54:51.000Z,7.7
2022-08-25T18:56:05.000Z,7.3
2022-08-25T18:57:19.000Z,7.2
2022-08-25T18:58:34.000Z,7.1
2022-08-25T18:59:48.000Z,7.5
2022-08-25T19:01:02.000Z,7.5
2022-08-25T19:02:16.000Z,7.3
2022-08-25T19:03:29.000Z,8.1
2022-08-25T19:04:42.000Z,7.5
2022-08-25T19:05:56.000Z,7.5
2022-08-25T19:07:11.000Z,7.5
2022-08-25T19:08:25.000Z,8
2022-08-25T19:09:38.000Z,7.7
2022-08-25T19:10:51.000Z,7.8
2022-08-25T19:12:05.000Z,7.5
2022-08-25T19:13:19.000Z,7.7
2022-08-25T19:14:33.000Z,7.9
2022-08-25T19:15:47.000Z,8.1
2022-08-25T19:17:02.000Z,8
2022-08-25T19:18:16.000Z,7.9
2022-08-25T19:19:30.000Z,8
2022-08-25T19:20:44.000Z,8.1
2022-08-25T19:21:58.000Z,8
2022-08-25T19:23:12.000Z,7.8
2022-08-25T19:24:26.000Z,8.1
2022-08-25T19:25:41.000Z,7.6
2022-08-25T19:26:54.000Z,7.6
2022-08-25T19:28:08.000Z,7.4
2022-08-25T19:29:22.000Z,8.3
2022-08-25T19:30:36.000Z,8.5
2022-08-25T19:31:50.000Z,8.6
2022-08-25T19:33:04.000Z,8.3
2022-08-25T19:34:18.000Z,8.3
2022-08-25T19:35:32.000Z,8.2
2022-08-25T19:36:45.000Z,9.5
2022-08-25T19:37:59.000Z,8.6
2022-08-25T19:39:12.000Z,8
2022-08-25T19:40:25.000Z,8.4
2022-08-25T19:41:39.000Z,8.2
2022-08-25T19:42:53.000Z,7.5
2022-08-25T19:44:08.000Z,8.2
2022-08-25T19:45:22.000Z,8.6
2022-08-25T19:46:36.000Z,8.8
2022-08-25T19:47:50.000Z,8.9
2022-08-25T19:49:04.000Z,8.4
2022-08-25T19:50:18.000Z,7.9
2022-08-25T19:51:32.000Z,8.7
2022-08-25T19:52:47.000Z,8.8
2022-08-25T19:54:01.000Z,9.2
2022-08-25T19:55:15.000Z,8.2
2022-08-25T19:56:28.000Z,8.1
2022-08-25T19:57:42.000Z,7.7
2022-08-25T19:58:56.000Z,8.1
2022-08-25T20:00:10.000Z,8
2022-08-25T20:01:24.000Z,8.4
2022-08-25T20:02:39.000Z,9.1
2022-08-25T20:03:53.000Z,9
2022-08-25T20:05:06.000Z,8.6
2022-08-25T20:06:19.000Z,9.4
2022-08-25T20:07:33.000Z,9
2022-08-25T20:08:47.000Z,9.6
2022-08-25T20:10:00.000Z,8.9
2022-08-25T20:11:14.000Z,8.7
2022-08-25T20:12:28.000Z,9.7
2022-08-25T20:13:42.000Z,8.3
2022-08-25T20:14:56.000Z,8.8
2022-08-25T20:16:10.000Z,8.1
2022-08-25T20:17:24.000Z,8.5
2022-08-25T20:18:38.000Z,8.1
2022-08-25T20:19:53.000Z,9.2
2022-08-25T20:21:07.000Z,8.6
2022-08-25T20:22:21.000Z,8.5
2022-08-25T20:23:35.000Z,9.1
2022-08-25T20:24:49.000Z,9.8
2022-08-25T20:26:03.000Z,9.6
2022-08-25T20:27:16.000Z,8.6
2022-08-25T20:28:30.000Z,9.2
2022-08-25T20:29:44.000Z,9.9
2022-08-25T20:30:58.000Z,9.5
2022-08-25T20:32:12.000Z,9.5
2022-08-25T20:33:26.000Z,10.1
2022-08-25T20:34:40.000Z,10.1
2022-08-25T20:35:53.000Z,10.1
2022-08-25T20:37:06.000Z,9.6
2022-08-25T20:38:20.000Z,9
2022-08-25T20:39:33.000Z,9.2
2022-08-25T20:40:47.000Z,9.1
2022-08-25T20:42:01.000Z,8.9
2022-08-25T20:43:15.000Z,9.1
2022-08-25T20:44:29.000Z,8.8
2022-08-25T20:45:43.000Z,9.1
2022-08-25T20:46:58.000Z,9.5
2022-08-25T20:48:12.000Z,9.5
2022-08-25T20:49:26.000Z,9.4
2022-08-25T20:50:40.000Z,9.4
2022-08-25T20:51:54.000Z,9.3
2022-08-25T20:53:08.000Z,9.2
2022-08-25T20:54:22.000Z,9.3
2022-08-25T20:55:36.000Z,9.5
2022-08-25T20:56:50.000Z,9.7
2022-08-25T20:58:04.000Z,9.1
2022-08-25T20:59:18.000Z,9.4
2022-08-25T21:00:32.000Z,8.7
2022-08-25T21:01:46.000Z,8.8
2022-08-25T21:03:00.000Z,9.1
2022-08-25T21:04:13.000Z,9
2022-08-25T21:05:27.000Z,8.6
2022-08-25T21:06:41.000Z,8.9
2022-08-25T21:07:54.000Z,9.1
2022-08-25T21:10:21.000Z,8.8
2022-08-25T21:11:35.000Z,9
2022-08-25T21:12:49.000Z,8.8
2022-08-25T21:14:04.000Z,8.2
2022-08-25T21:15:18.000Z,8.7
2022-08-25T21:16:32.000Z,8.1
2022-08-25T21:17:46.000Z,8.8
2022-08-25T21:19:00.000Z,9.3
2022-08-25T21:20:14.000Z,8.3
2022-08-25T21:21:28.000Z,8.6
2022-08-25T21:22:42.000Z,8
2022-08-25T21:23:57.000Z,8.4
2022-08-25T21:25:10.000Z,9.1
2022-08-25T21:26:24.000Z,8.9
2022-08-25T21:27:38.000Z,8.6
2022-08-25T21:28:52.000Z,8.5
2022-08-25T21:30:06.000Z,9.3
2022-08-25T21:31:20.000Z,8.2
2022-08-25T21:32:35.000Z,9.3
2022-08-25T21:33:49.000Z,8.9
2022-08-25T21:35:02.000Z,8.8
2022-08-25T21:36:15.000Z,9
2022-08-25T21:37:28.000Z,9
2022-08-25T21:38:41.000Z,9
2022-08-25T21:39:55.000Z,8.7
2022-08-25T21:41:10.000Z,8.6
2022-08-25T21:42:24.000Z,8.8
2022-08-25T21:43:38.000Z,9.3
2022-08-25T21:44:52.000Z,9.7
2022-08-25T21:46:06.000Z,9.1
2022-08-25T21:47:20.000Z,8.5
2022-08-25T21:48:34.000Z,8.7
2022-08-25T21:49:48.000Z,8.9
2022-08-25T21:51:03.000Z,9.3
2022-08-25T21:52:17.000Z,9.3
2022-08-25T21:53:31.000Z,9.3
2022-08-25T21:54:44.000Z,9.5
2022-08-25T21:55:58.000Z,9.1
2022-08-25T21:57:12.000Z,9.3
2022-08-25T21:58:26.000Z,9.4
2022-08-25T21:59:41.000Z,10.1
2022-08-25T22:00:55.000Z,9.1
2022-08-25T22:02:09.000Z,9.2
2022-08-25T22:03:22.000Z,9.8
2022-08-25T22:04:35.000Z,9.6
2022-08-25T22:05:49.000Z,9.9
2022-08-25T22:07:02.000Z,9.5
2022-08-25T22:08:16.000Z,9.8
2022-08-25T22:09:30.000Z,9.4
2022-08-25T22:10:44.000Z,10.6
2022-08-25T22:11:58.000Z,9.7
2022-08-25T22:13:12.000Z,10
2022-08-25T22:14:26.000Z,9.2
2022-08-25T22:15:40.000Z,9.7
2022-08-25T22:16:54.000Z,9.3
2022-08-25T22:18:09.000Z,9.6
2022-08-25T22:19:23.000Z,9.4
2022-08-25T22:20:37.000Z,9.8
2022-08-25T22:21:51.000Z,9.5
2022-08-25T22:23:05.000Z,9.3
2022-08-25T22:24:18.000Z,9.7
2022-08-25T22:25:32.000Z,9.7
2022-08-25T22:26:47.000Z,9.1
2022-08-25T22:28:01.000Z,9.9
2022-08-25T22:29:15.000Z,9.8
2022-08-25T22:30:29.000Z,9.5
2022-08-25T22:31:43.000Z,9.3
2022-08-25T22:32:56.000Z,9.5
2022-08-25T22:34:09.000Z,9.3
2022-08-25T22:35:24.000Z,10.5
2022-08-25T22:36:38.000Z,10.5
2022-08-25T22:37:51.000Z,10.4
2022-08-25T22:39:04.000Z,10.3
2022-08-25T22:40:18.000Z,9.8
2022-08-25T22:41:32.000Z,10.4
2022-08-25T22:42:46.000Z,10.3
2022-08-25T22:44:00.000Z,9.9
2022-08-25T22:45:15.000Z,9.6
2022-08-25T22:46:29.000Z,10.4
2022-08-25T22:47:43.000Z,10.1
2022-08-25T22:48:57.000Z,10.1
2022-08-25T22:50:11.000Z,10
2022-08-25T22:51:25.000Z,10.4
2022-08-25T22:52:39.000Z,9.4
2022-08-25T22:53:54.000Z,9.8
2022-08-25T22:55:07.000Z,10
2022-08-25T22:56:21.000Z,9.6
2022-08-25T22:57:35.000Z,10.5
2022-08-25T22:58:49.000Z,10.1
2022-08-25T23:00:03.000Z,10.5
2022-08-25T23:01:17.000Z,10.3
2022-08-25T23:02:31.000Z,9.9
2022-08-25T23:03:45.000Z,9.8
2022-08-25T23:04:58.000Z,11
2022-08-25T23:06:11.000Z,10.5
2022-08-25T23:07:24.000Z,10.3
2022-08-25T23:08:38.000Z,10.2
2022-08-25T23:09:52.000Z,10.5
2022-08-25T23:11:06.000Z,10.4
2022-08-25T23:12:21.000Z,10.5
2022-08-25T23:13:35.000Z,11.4
2022-08-25T23:14:49.000Z,10.6
2022-08-25T23:16:03.000Z,10.4
2022-08-25T23:17:17.000Z,10.7
2022-08-25T23:18:31.000Z,10.5
2022-08-25T23:19:45.000Z,10.6
2022-08-25T23:21:00.000Z,10.8
2022-08-25T23:22:14.000Z,10.5
2022-08-25T23:23:27.000Z,10.4
2022-08-25T23:24:41.000Z,10.8
2022-08-25T23:25:55.000Z,10.2
2022-08-25T23:27:09.000Z,11
2022-08-25T23:28:23.000Z,10.6
2022-08-25T23:29:37.000Z,11.2
2022-08-25T23:30:52.000Z,11.5
2022-08-25T23:32:05.000Z,11.1
2022-08-25T23:33:18.000Z,10.9
2022-08-25T23:34:32.000Z,11.3
2022-08-25T23:35:45.000Z,10.9
2022-08-25T23:36:58.000Z,11.1
2022-08-25T23:38:12.000Z,10.9
2022-08-25T23:39:27.000Z,11.5
2022-08-25T23:40:41.000Z,10.8
2022-08-25T23:41:55.000Z,11.4
2022-08-25T23:43:09.000Z,10.8
2022-08-25T23:44:23.000Z,11.9
2022-08-25T23:46:51.000Z,11.2
2022-08-25T23:48:06.000Z,11.7
2022-08-25T23:49:20.000Z,10.7
2022-08-25T23:50:34.000Z,11.2
2022-08-25T23:51:48.000Z,11.4
2022-08-25T23:53:01.000Z,11.7
2022-08-25T23:54:15.000Z,11.1
2022-08-25T23:55:29.000Z,10.7
2022-08-25T23:56:43.000Z,11.1
2022-08-25T23:57:58.000Z,11.5
2022-08-25T23:59:12.000Z,11
